Wetterdaten: aktuell Mittwoch, 23.09.2020 07:10
Datum Zeit Temp. A. Feuchte A. Luftdruck Regen Wind Richtung Richtung ET Taupunkt Windchill Windben Empfang
23.09.2020 07:10 13,0 C 78 % 1004,3 hPa 0,0 l/m 3,7 km/h (1 Bft) S 187 0 mm 9,3 C 13,0 C 7,8 km/h (2 Bft) 98 %
23.09.2020 07:00 12,7 C 79 % 1004,3 hPa 0,0 l/m 5,9 km/h (2 Bft) S-SW 202 0 mm 9,2 C 12,7 C 9,8 km/h (2 Bft) 100 %
23.09.2020 06:50 12,3 C 80 % 1004,3 hPa 0,0 l/m 4,6 km/h (1 Bft) S 182 0 mm 8,9 C 12,3 C 7,8 km/h (2 Bft) 99 %
23.09.2020 06:40 12,4 C 79 % 1004,3 hPa 0,0 l/m 3,6 km/h (1 Bft) S 181 0 mm 8,9 C 12,4 C 7,8 km/h (2 Bft) 99 %
23.09.2020 06:30 12,4 C 79 % 1004,3 hPa 0,0 l/m 5,2 km/h (1 Bft) S-SW 209 0 mm 8,9 C 12,4 C 9,8 km/h (2 Bft) 98 %
23.09.2020 06:20 12,4 C 80 % 1004,3 hPa 0,0 l/m 6,4 km/h (2 Bft) S-SW 202 0 mm 9,0 C 12,4 C 11,8 km/h (2 Bft) 98 %
23.09.2020 06:10 12,2 C 80 % 1004,3 hPa 0,0 l/m 6,5 km/h (2 Bft) S-SW 207 0 mm 8,9 C 12,2 C 11,8 km/h (2 Bft) 100 %
23.09.2020 06:00 12,1 C 81 % 1004,3 hPa 0,0 l/m 5,1 km/h (1 Bft) S-SW 200 0 mm 8,9 C 12,1 C 9,8 km/h (2 Bft) 100 %
23.09.2020 05:50 11,9 C 83 % 1004,4 hPa 0,0 l/m 5,0 km/h (1 Bft) S-SW 202 0 mm 9,1 C 11,9 C 7,8 km/h (2 Bft) 98 %
23.09.2020 05:40 11,6 C 85 % 1004,4 hPa 0,0 l/m 4,6 km/h (1 Bft) S-SW 208 0 mm 9,2 C 11,6 C 9,8 km/h (2 Bft) 100 %
23.09.2020 05:30 11,2 C 87 % 1004,5 hPa 0,0 l/m 2,9 km/h (1 Bft) W-SW 238 0 mm 9,1 C 11,2 C 5,9 km/h (2 Bft) 99 %
23.09.2020 05:20 11,1 C 87 % 1004,5 hPa 0,0 l/m 1,2 km/h (1 Bft) W-SW 254 0 mm 9,0 C 11,1 C 3,9 km/h (1 Bft) 100 %
23.09.2020 05:10 11,1 C 88 % 1004,6 hPa 0,0 l/m 1,4 km/h (1 Bft) W-SW 254 0 mm 9,2 C 11,1 C 3,9 km/h (1 Bft) 99 %
23.09.2020 05:00 10,9 C 89 % 1004,6 hPa 0,0 l/m 2,5 km/h (1 Bft) W-SW 254 0 mm 9,2 C 10,9 C 3,9 km/h (1 Bft) 99 %
23.09.2020 04:50 10,7 C 90 % 1004,6 hPa 0,0 l/m 2,7 km/h (1 Bft) W-SW 254 0 mm 9,1 C 10,7 C 5,9 km/h (2 Bft) 100 %
23.09.2020 04:40 10,6 C 91 % 1004,7 hPa 0,0 l/m 2,1 km/h (1 Bft) W-SW 254 0 mm 9,2 C 10,6 C 5,9 km/h (2 Bft) 98 %
23.09.2020 04:30 10,5 C 91 % 1004,8 hPa 0,0 l/m 0,6 km/h (0 Bft) W-SW 254 0 mm 9,1 C 10,5 C 3,9 km/h (1 Bft) 99 %
23.09.2020 04:20 10,5 C 91 % 1004,8 hPa 0,0 l/m 0,0 km/h (0 Bft) W-SW 254 0 mm 9,1 C 10,5 C 0,0 km/h (0 Bft) 100 %
23.09.2020 04:10 10,5 C 91 % 1004,7 hPa 0,0 l/m 0,0 km/h (0 Bft) W-SW 254 0 mm 9,1 C 10,5 C 0,0 km/h (0 Bft) 100 %
23.09.2020 04:00 10,6 C 91 % 1004,8 hPa 0,0 l/m 0,0 km/h (0 Bft) W-SW 247 0 mm 9,2 C 10,6 C 3,9 km/h (1 Bft) 100 %
23.09.2020 03:50 10,6 C 91 % 1004,9 hPa 0,0 l/m 0,7 km/h (0 Bft) W-SW 254 0 mm 9,2 C 10,6 C 2,0 km/h (1 Bft) 99 %
23.09.2020 03:40 10,6 C 91 % 1005,0 hPa 0,0 l/m 0,9 km/h (0 Bft) W-SW 254 0 mm 9,2 C 10,6 C 3,9 km/h (1 Bft) 99 %
23.09.2020 03:30 10,4 C 91 % 1005,1 hPa 0,0 l/m 0,2 km/h (0 Bft) W-SW 254 0 mm 9,0 C 10,4 C 2,0 km/h (1 Bft) 99 %
23.09.2020 03:20 10,3 C 91 % 1005,1 hPa 0,0 l/m 0,1 km/h (0 Bft) W-SW 254 0 mm 8,9 C 10,3 C 2,0 km/h (1 Bft) 99 %
23.09.2020 03:10 10,3 C 90 % 1005,1 hPa 0,0 l/m 0,1 km/h (0 Bft) W-SW 255 0 mm 8,7 C 10,3 C 2,0 km/h (1 Bft) 99 %
23.09.2020 03:00 10,4 C 91 % 1005,2 hPa 0,0 l/m 0,1 km/h (0 Bft) W-SW 255 0 mm 9,0 C 10,4 C 2,0 km/h (1 Bft) 99 %
23.09.2020 02:50 10,4 C 90 % 1005,3 hPa 0,0 l/m 0,0 km/h (0 Bft) W-SW 257 0 mm 8,8 C 10,4 C 0,0 km/h (0 Bft) 99 %
23.09.2020 02:40 10,4 C 90 % 1005,3 hPa 0,0 l/m 0,0 km/h (0 Bft) W-SW 257 0 mm 8,8 C 10,4 C 0,0 km/h (0 Bft) 99 %
23.09.2020 02:30 10,4 C 90 % 1005,4 hPa 0,0 l/m 0,0 km/h (0 Bft) W-SW 256 0 mm 8,8 C 10,4 C 0,0 km/h (0 Bft) 100 %
23.09.2020 02:20 10,4 C 90 % 1005,4 hPa 0,0 l/m 0,0 km/h (0 Bft) W-SW 257 0 mm 8,8 C 10,4 C 0,0 km/h (0 Bft) 100 %
23.09.2020 02:10 10,4 C 90 % 1005,4 hPa 0,0 l/m 0,0 km/h (0 Bft) W-SW 257 0 mm 8,8 C 10,4 C 0,0 km/h (0 Bft) 99 %
23.09.2020 02:00 10,4 C 90 % 1005,4 hPa 0,0 l/m 0,0 km/h (0 Bft) W-SW 257 0 mm 8,8 C 10,4 C 0,0 km/h (0 Bft) 97 %
23.09.2020 01:50 10,4 C 90 % 1005,6 hPa 0,0 l/m 0,0 km/h (0 Bft) W-SW 256 0 mm 8,8 C 10,4 C 0,0 km/h (0 Bft) 99 %
23.09.2020 01:40 10,4 C 90 % 1005,6 hPa 0,0 l/m 0,0 km/h (0 Bft) W-SW 257 0 mm 8,8 C 10,4 C 0,0 km/h (0 Bft) 99 %
23.09.2020 01:30 10,5 C 90 % 1005,7 hPa 0,0 l/m 0,0 km/h (0 Bft) W-SW 257 0 mm 8,9 C 10,5 C 0,0 km/h (0 Bft) 100 %
23.09.2020 01:28 10,5 C 90 % 1005,7 hPa 0,0 l/m 0,0 km/h (0 Bft) W-SW 256 0 mm 8,9 C 10,5 C 0,0 km/h (0 Bft) 100 %
23.09.2020 01:27 10,5 C 90 % 1005,7 hPa 0,0 l/m 0,0 km/h (0 Bft) W-SW 256 0 mm 8,9 C 10,5 C 0,0 km/h (0 Bft) 100 %
23.09.2020 01:26 10,6 C 90 % 1005,7 hPa 0,0 l/m 0,0 km/h (0 Bft) W-SW 257 0 mm 9,0 C 10,6 C 0,0 km/h (0 Bft) 100 %
23.09.2020 01:18 10,6 C 89 % 1005,7 hPa 0,0 l/m 0,0 km/h (0 Bft) W-SW 256 0 mm 8,9 C 10,6 C 0,0 km/h (0 Bft) 99 %
23.09.2020 01:00 10,8 C 89 % 1005,9 hPa 0,0 l/m 0,0 km/h (0 Bft) N 0 0 mm 9,1 C 10,8 C 0,0 km/h (0 Bft) 100 %
23.09.2020 00:50 10,9 C 89 % 1006,0 hPa 0,0 l/m 0,0 km/h (0 Bft) W-SW 256 0 mm 9,2 C 10,9 C 0,0 km/h (0 Bft) 100 %
23.09.2020 00:40 11,0 C 88 % 1006,0 hPa 0,0 l/m 0,0 km/h (0 Bft) W-SW 257 0 mm 9,1 C 11,0 C 0,0 km/h (0 Bft) 99 %
23.09.2020 00:30 11,2 C 88 % 1006,1 hPa 0,0 l/m 0,0 km/h (0 Bft) W-SW 257 0 mm 9,3 C 11,2 C 0,0 km/h (0 Bft) 99 %
23.09.2020 00:20 11,3 C 88 % 1006,2 hPa 0,0 l/m 0,0 km/h (0 Bft) W-SW 256 0 mm 9,4 C 11,3 C 0,0 km/h (0 Bft) 100 %
23.09.2020 00:10 11,4 C 88 % 1006,2 hPa 0,0 l/m 0,0 km/h (0 Bft) W-SW 257 0 mm 9,5 C 11,4 C 0,0 km/h (0 Bft) 100 %
23.09.2020 00:00 11,6 C 87 % 1006,3 hPa 0,0 l/m 0,0 km/h (0 Bft) W-SW 257 0 mm 9,5 C 11,6 C 0,0 km/h (0 Bft) 100 %
22.09.2020 23:50 11,7 C 87 % 1006,3 hPa 0,0 l/m 0,0 km/h (0 Bft) W-SW 257 0 mm 9,6 C 11,7 C 0,0 km/h (0 Bft) 98 %
22.09.2020 23:40 11,9 C 87 % 1006,3 hPa 0,0 l/m 0,0 km/h (0 Bft) W-SW 257 0 mm 9,8 C 11,9 C 0,0 km/h (0 Bft) 100 %
22.09.2020 23:30 12,2 C 86 % 1006,4 hPa 0,0 l/m 0,0 km/h (0 Bft) W-SW 256 0 mm 9,9 C 12,2 C 0,0 km/h (0 Bft) 100 %
22.09.2020 23:20 12,3 C 87 % 1006,5 hPa 0,0 l/m 0,0 km/h (0 Bft) W-SW 257 0 mm 10,2 C 12,3 C 0,0 km/h (0 Bft) 100 %
22.09.2020 23:10 12,5 C 86 % 1006,5 hPa 0,0 l/m 0,0 km/h (0 Bft) W-SW 257 0 mm 10,2 C 12,5 C 0,0 km/h (0 Bft) 99 %
22.09.2020 23:00 12,7 C 86 % 1006,5 hPa 0,0 l/m 0,0 km/h (0 Bft) W-SW 256 0 mm 10,4 C 12,7 C 0,0 km/h (0 Bft) 98 %
22.09.2020 22:50 12,9 C 86 % 1006,5 hPa 0,0 l/m 0,0 km/h (0 Bft) W-SW 256 0 mm 10,6 C 12,9 C 0,0 km/h (0 Bft) 100 %
22.09.2020 22:40 13,2 C 86 % 1006,5 hPa 0,0 l/m 0,0 km/h (0 Bft) W-SW 257 0 mm 10,9 C 13,2 C 0,0 km/h (0 Bft) 100 %
22.09.2020 22:30 13,3 C 85 % 1006,6 hPa 0,0 l/m 0,0 km/h (0 Bft) W-SW 256 0 mm 10,8 C 13,3 C 0,0 km/h (0 Bft) 100 %
22.09.2020 22:20 13,6 C 85 % 1006,7 hPa 0,0 l/m 0,0 km/h (0 Bft) W-SW 256 0 mm 11,1 C 13,6 C 0,0 km/h (0 Bft) 100 %
22.09.2020 22:10 13,8 C 85 % 1006,6 hPa 0,0 l/m 0,0 km/h (0 Bft) W-SW 256 0 mm 11,3 C 13,8 C 0,0 km/h (0 Bft) 100 %
22.09.2020 22:00 14,1 C 84 % 1006,6 hPa 0,0 l/m 0,0 km/h (0 Bft) N 0 0 mm 11,4 C 14,1 C 0,0 km/h (0 Bft) 100 %
22.09.2020 21:50 14,3 C 83 % 1006,7 hPa 0,0 l/m 0,0 km/h (0 Bft) W-SW 257 0 mm 11,5 C 14,3 C 0,0 km/h (0 Bft) 100 %
22.09.2020 21:40 14,6 C 83 % 1006,7 hPa 0,0 l/m 0,0 km/h (0 Bft) W-SW 257 0 mm 11,7 C 14,6 C 0,0 km/h (0 Bft) 99 %
22.09.2020 21:30 14,9 C 82 % 1006,7 hPa 0,0 l/m 0,0 km/h (0 Bft) W-SW 257 0 mm 11,9 C 14,9 C 0,0 km/h (0 Bft) 100 %
22.09.2020 21:20 15,2 C 81 % 1006,8 hPa 0,0 l/m 0,0 km/h (0 Bft) W-SW 256 0 mm 12,0 C 15,2 C 0,0 km/h (0 Bft) 98 %
22.09.2020 21:10 15,4 C 79 % 1006,9 hPa 0,0 l/m 0,0 km/h (0 Bft) W-SW 257 0 mm 11,8 C 15,4 C 0,0 km/h (0 Bft) 100 %
22.09.2020 21:00 15,7 C 77 % 1006,9 hPa 0,0 l/m 0,0 km/h (0 Bft) W-SW 257 0 mm 11,7 C 15,7 C 0,0 km/h (0 Bft) 100 %
22.09.2020 20:50 16,1 C 76 % 1006,8 hPa 0,0 l/m 0,0 km/h (0 Bft) W-SW 257 0 mm 11,9 C 16,1 C 0,0 km/h (0 Bft) 99 %
22.09.2020 20:40 16,4 C 76 % 1006,8 hPa 0,0 l/m 0,0 km/h (0 Bft) W-SW 257 0 mm 12,2 C 16,4 C 0,0 km/h (0 Bft) 99 %
22.09.2020 20:30 16,8 C 75 % 1006,9 hPa 0,0 l/m 0,0 km/h (0 Bft) W-SW 257 0 mm 12,3 C 16,8 C 0,0 km/h (0 Bft) 100 %
22.09.2020 20:20 17,3 C 74 % 1006,8 hPa 0,0 l/m 0,0 km/h (0 Bft) W-SW 257 0 mm 12,6 C 17,3 C 0,0 km/h (0 Bft) 99 %
22.09.2020 20:10 17,8 C 71 % 1006,9 hPa 0,0 l/m 0,0 km/h (0 Bft) W-SW 257 0 mm 12,5 C 17,8 C 0,0 km/h (0 Bft) 98 %
22.09.2020 20:00 18,4 C 69 % 1006,9 hPa 0,0 l/m 0,0 km/h (0 Bft) W-SW 257 0 mm 12,6 C 18,4 C 0,0 km/h (0 Bft) 99 %
22.09.2020 19:50 18,9 C 67 % 1006,9 hPa 0,0 l/m 0,0 km/h (0 Bft) W-SW 257 0 mm 12,6 C 18,9 C 0,0 km/h (0 Bft) 100 %
22.09.2020 19:40 19,4 C 64 % 1007,0 hPa 0,0 l/m 0,0 km/h (0 Bft) W-SW 257 0 mm 12,4 C 19,4 C 0,0 km/h (0 Bft) 97 %
22.09.2020 19:30 19,9 C 62 % 1007,0 hPa 0,0 l/m 0,0 km/h (0 Bft) W-SW 257 0 mm 12,4 C 19,9 C 0,0 km/h (0 Bft) 99 %
22.09.2020 19:20 20,4 C 60 % 1007,0 hPa 0,0 l/m 0,0 km/h (0 Bft) W-SW 257 0 mm 12,4 C 20,4 C 0,0 km/h (0 Bft) 98 %
22.09.2020 19:10 20,8 C 58 % 1007,1 hPa 0,0 l/m 0,0 km/h (0 Bft) W-SW 257 0 mm 12,2 C 20,8 C 0,0 km/h (0 Bft) 98 %
22.09.2020 19:00 21,2 C 57 % 1007,1 hPa 0,0 l/m 2,0 km/h (1 Bft) W-SW 247 0 mm 12,3 C 21,2 C 3,9 km/h (1 Bft) 100 %
22.09.2020 18:50 21,6 C 56 % 1007,1 hPa 0,0 l/m 2,0 km/h (1 Bft) W-SW 247 0 mm 12,4 C 21,6 C 3,9 km/h (1 Bft) 100 %
22.09.2020 18:40 21,9 C 55 % 1007,1 hPa 0,0 l/m 0,6 km/h (0 Bft) W-SW 256 0 mm 12,4 C 21,9 C 2,0 km/h (1 Bft) 100 %
22.09.2020 18:30 22,2 C 54 % 1007,2 hPa 0,0 l/m 1,3 km/h (1 Bft) W-SW 256 0 mm 12,4 C 22,2 C 3,9 km/h (1 Bft) 98 %
22.09.2020 18:20 22,6 C 52 % 1007,2 hPa 0,0 l/m 1,7 km/h (1 Bft) W-SW 256 0 mm 12,2 C 22,6 C 5,9 km/h (2 Bft) 100 %
22.09.2020 18:10 23,0 C 51 % 1007,3 hPa 0,0 l/m 1,9 km/h (1 Bft) W-SW 257 0 mm 12,3 C 23,0 C 5,9 km/h (2 Bft) 99 %
22.09.2020 18:00 23,3 C 49 % 1007,3 hPa 0,0 l/m 1,9 km/h (1 Bft) W 265 0 mm 12,0 C 23,3 C 5,9 km/h (2 Bft) 99 %
22.09.2020 17:50 23,8 C 48 % 1007,4 hPa 0,0 l/m 3,1 km/h (1 Bft) W 266 0 mm 12,1 C 23,8 C 7,8 km/h (2 Bft) 100 %
22.09.2020 17:40 24,1 C 47 % 1007,5 hPa 0,0 l/m 3,5 km/h (1 Bft) W 263 0 mm 12,1 C 24,1 C 7,8 km/h (2 Bft) 98 %
22.09.2020 17:30 24,2 C 46 % 1007,6 hPa 0,0 l/m 2,1 km/h (1 Bft) W 264 0 mm 11,8 C 24,2 C 5,9 km/h (2 Bft) 99 %
22.09.2020 17:20 24,3 C 45 % 1007,8 hPa 0,0 l/m 2,5 km/h (1 Bft) W 265 0 mm 11,6 C 24,3 C 7,8 km/h (2 Bft) 98 %
22.09.2020 17:10 24,2 C 46 % 1008,0 hPa 0,0 l/m 4,2 km/h (1 Bft) NW 306 0 mm 11,8 C 24,2 C 9,8 km/h (2 Bft) 98 %
22.09.2020 17:00 24,2 C 47 % 1008,1 hPa 0,0 l/m 3,6 km/h (1 Bft) W 262 0 mm 12,2 C 24,2 C 9,8 km/h (2 Bft) 99 %
22.09.2020 16:50 24,4 C 46 % 1008,2 hPa 0,0 l/m 4,1 km/h (1 Bft) W-NW 296 0 mm 12,0 C 24,4 C 9,8 km/h (2 Bft) 99 %
22.09.2020 16:40 24,2 C 47 % 1008,4 hPa 0,0 l/m 3,0 km/h (1 Bft) W-SW 249 0 mm 12,2 C 24,2 C 9,8 km/h (2 Bft) 99 %
22.09.2020 16:30 24,1 C 47 % 1008,4 hPa 0,0 l/m 4,7 km/h (1 Bft) SW 215 0 mm 12,1 C 24,1 C 11,8 km/h (2 Bft) 98 %
22.09.2020 16:20 24,1 C 46 % 1008,5 hPa 0,0 l/m 4,9 km/h (1 Bft) W-SW 238 0 mm 11,7 C 24,1 C 11,8 km/h (2 Bft) 99 %
22.09.2020 16:10 24,2 C 47 % 1008,5 hPa 0,0 l/m 5,1 km/h (1 Bft) S-SW 211 0 mm 12,2 C 24,2 C 9,8 km/h (2 Bft) 99 %
22.09.2020 16:00 24,2 C 46 % 1008,7 hPa 0,0 l/m 5,9 km/h (2 Bft) S-SW 202 0 mm 11,8 C 24,2 C 13,7 km/h (3 Bft) 100 %
22.09.2020 15:50 24,2 C 46 % 1008,8 hPa 0,0 l/m 2,6 km/h (1 Bft) S-SW 213 0 mm 11,8 C 24,2 C 9,8 km/h (2 Bft) 99 %
22.09.2020 15:40 24,1 C 47 % 1009,0 hPa 0,0 l/m 5,7 km/h (1 Bft) SW 218 0 mm 12,1 C 24,1 C 13,7 km/h (3 Bft) 99 %
22.09.2020 15:30 24,2 C 46 % 1009,0 hPa 0,0 l/m 3,8 km/h (1 Bft) W-NW 290 0 mm 11,8 C 24,2 C 15,7 km/h (3 Bft) 100 %
22.09.2020 15:20 23,8 C 48 % 1009,0 hPa 0,0 l/m 5,5 km/h (1 Bft) S-SW 197 0 mm 12,1 C 23,8 C 15,7 km/h (3 Bft) 100 %
22.09.2020 15:10 23,9 C 48 % 1009,1 hPa 0,0 l/m 6,0 km/h (2 Bft) S-SW 195 0 mm 12,2 C 23,9 C 13,7 km/h (3 Bft) 100 %
22.09.2020 15:00 24,1 C 48 % 1009,2 hPa 0,0 l/m 4,1 km/h (1 Bft) SW 214 0 mm 12,4 C 24,1 C 9,8 km/h (2 Bft) 100 %
22.09.2020 14:50 23,8 C 50 % 1009,2 hPa 0,0 l/m 4,1 km/h (1 Bft) N-NW 331 0 mm 12,7 C 23,8 C 13,7 km/h (3 Bft) 98 %
22.09.2020 14:40 23,7 C 49 % 1009,3 hPa 0,0 l/m 5,9 km/h (2 Bft) S-SW 198 0 mm 12,3 C 23,7 C 13,7 km/h (3 Bft) 100 %
22.09.2020 14:30 23,8 C 50 % 1009,4 hPa 0,0 l/m 3,7 km/h (1 Bft) W-SW 257 0 mm 12,7 C 23,8 C 13,7 km/h (3 Bft) 99 %
22.09.2020 14:20 23,4 C 52 % 1009,5 hPa 0,0 l/m 3,1 km/h (1 Bft) W 281 0 mm 13,0 C 23,4 C 9,8 km/h (2 Bft) 99 %
22.09.2020 14:10 23,3 C 53 % 1009,6 hPa 0,0 l/m 4,4 km/h (1 Bft) S-SW 200 0 mm 13,2 C 23,3 C 11,8 km/h (2 Bft) 99 %
22.09.2020 14:00 23,1 C 55 % 1009,7 hPa 0,0 l/m 3,5 km/h (1 Bft) W-NW 286 0 mm 13,6 C 23,1 C 13,7 km/h (3 Bft) 98 %
22.09.2020 13:50 22,8 C 54 % 1009,8 hPa 0,0 l/m 6,0 km/h (2 Bft) SW 232 0 mm 13,0 C 22,8 C 13,7 km/h (3 Bft) 99 %
22.09.2020 13:40 23,0 C 54 % 1009,9 hPa 0,0 l/m 4,0 km/h (1 Bft) S-SW 207 0 mm 13,2 C 23,0 C 9,8 km/h (2 Bft) 100 %
22.09.2020 13:30 22,8 C 56 % 1010,0 hPa 0,0 l/m 4,4 km/h (1 Bft) S-SW 207 0 mm 13,6 C 22,8 C 9,8 km/h (2 Bft) 99 %
22.09.2020 13:20 22,6 C 55 % 1010,1 hPa 0,0 l/m 4,7 km/h (1 Bft) SW 236 0 mm 13,1 C 22,6 C 9,8 km/h (2 Bft) 99 %
22.09.2020 13:10 22,6 C 58 % 1010,2 hPa 0,0 l/m 4,9 km/h (1 Bft) S-SW 198 0 mm 13,9 C 22,6 C 11,8 km/h (2 Bft) 99 %
22.09.2020 13:00 22,3 C 61 % 1010,3 hPa 0,0 l/m 5,9 km/h (2 Bft) W-SW 247 0 mm 14,4 C 22,3 C 11,8 km/h (2 Bft) 100 %
22.09.2020 12:50 22,0 C 58 % 1010,3 hPa 0,0 l/m 4,5 km/h (1 Bft) W-SW 250 0 mm 13,3 C 22,0 C 9,8 km/h (2 Bft) 98 %
22.09.2020 12:40 21,8 C 60 % 1010,4 hPa 0,0 l/m 5,0 km/h (1 Bft) W 263 0 mm 13,7 C 21,8 C 15,7 km/h (3 Bft) 98 %
22.09.2020 12:30 21,4 C 60 % 1010,4 hPa 0,0 l/m 4,3 km/h (1 Bft) SW 229 0 mm 13,3 C 21,4 C 9,8 km/h (2 Bft) 99 %
22.09.2020 12:20 21,2 C 60 % 1010,5 hPa 0,0 l/m 4,1 km/h (1 Bft) S-SW 204 0 mm 13,1 C 21,2 C 9,8 km/h (2 Bft) 99 %
22.09.2020 12:10 20,9 C 63 % 1010,6 hPa 0,0 l/m 3,2 km/h (1 Bft) S-SW 200 0 mm 13,6 C 20,9 C 9,8 km/h (2 Bft) 98 %
22.09.2020 12:00 20,6 C 64 % 1010,7 hPa 0,0 l/m 3,2 km/h (1 Bft) S-SW 208 0 mm 13,5 C 20,6 C 9,8 km/h (2 Bft) 100 %
22.09.2020 11:50 20,2 C 67 % 1010,9 hPa 0,0 l/m 2,0 km/h (1 Bft) W-SW 244 0 mm 13,9 C 20,2 C 7,8 km/h (2 Bft) 100 %
22.09.2020 11:40 19,4 C 66 % 1011,0 hPa 0,0 l/m 2,3 km/h (1 Bft) W-SW 244 0 mm 12,9 C 19,4 C 7,8 km/h (2 Bft) 98 %
22.09.2020 11:30 18,8 C 69 % 1011,1 hPa 0,0 l/m 2,4 km/h (1 Bft) W-SW 244 0 mm 13,0 C 18,8 C 5,9 km/h (2 Bft) 99 %
22.09.2020 11:20 18,5 C 72 % 1011,2 hPa 0,0 l/m 4,1 km/h (1 Bft) W 269 0 mm 13,4 C 18,5 C 9,8 km/h (2 Bft) 98 %
22.09.2020 11:10 18,2 C 73 % 1011,2 hPa 0,0 l/m 3,6 km/h (1 Bft) SW 214 0 mm 13,3 C 18,2 C 7,8 km/h (2 Bft) 98 %
22.09.2020 11:00 17,6 C 76 % 1011,2 hPa 0,0 l/m 3,0 km/h (1 Bft) SW 234 0 mm 13,3 C 17,6 C 5,9 km/h (2 Bft) 98 %
22.09.2020 10:50 17,1 C 75 % 1011,3 hPa 0,0 l/m 3,1 km/h (1 Bft) W-SW 246 0 mm 12,6 C 17,1 C 7,8 km/h (2 Bft) 100 %
22.09.2020 10:40 16,4 C 78 % 1011,3 hPa 0,0 l/m 2,0 km/h (1 Bft) W 273 0 mm 12,6 C 16,4 C 7,8 km/h (2 Bft) 99 %
22.09.2020 10:30 15,7 C 81 % 1011,4 hPa 0,0 l/m 3,3 km/h (1 Bft) W-SW 239 0 mm 12,4 C 15,7 C 5,9 km/h (2 Bft) 98 %
22.09.2020 10:20 14,9 C 84 % 1011,3 hPa 0,0 l/m 4,0 km/h (1 Bft) W 271 0 mm 12,2 C 14,9 C 7,8 km/h (2 Bft) 99 %
22.09.2020 10:10 14,5 C 85 % 1011,3 hPa 0,0 l/m 3,5 km/h (1 Bft) W 260 0 mm 12,0 C 14,5 C 7,8 km/h (2 Bft) 99 %
22.09.2020 10:00 14,1 C 86 % 1011,3 hPa 0,0 l/m 3,9 km/h (1 Bft) S-SW 202 0 mm 11,8 C 14,1 C 7,8 km/h (2 Bft) 100 %
22.09.2020 09:50 13,4 C 90 % 1011,2 hPa 0,0 l/m 3,7 km/h (1 Bft) S-SW 205 0 mm 11,8 C 13,4 C 5,9 km/h (2 Bft) 98 %
22.09.2020 09:40 12,4 C 92 % 1011,3 hPa 0,0 l/m 2,1 km/h (1 Bft) S 183 0 mm 11,1 C 12,4 C 5,9 km/h (2 Bft) 99 %
22.09.2020 09:30 11,8 C 94 % 1011,3 hPa 0,0 l/m 0,0 km/h (0 Bft) O 81 0 mm 10,9 C 11,8 C 0,0 km/h (0 Bft) 99 %
22.09.2020 09:20 11,1 C 94 % 1011,3 hPa 0,0 l/m 0,0 km/h (0 Bft) O 80 0 mm 10,2 C 11,1 C 0,0 km/h (0 Bft) 98 %
22.09.2020 09:10 10,6 C 94 % 1011,3 hPa 0,0 l/m 0,0 km/h (0 Bft) O 80 0 mm 9,7 C 10,6 C 0,0 km/h (0 Bft) 99 %
22.09.2020 09:00 10,2 C 94 % 1011,3 hPa 0,0 l/m 0,0 km/h (0 Bft) O 80 0 mm 9,3 C 10,2 C 0,0 km/h (0 Bft) 100 %
22.09.2020 08:50 9,7 C 95 % 1011,3 hPa 0,0 l/m 0,0 km/h (0 Bft) O 80 0 mm 8,9 C 9,7 C 0,0 km/h (0 Bft) 99 %
22.09.2020 08:40 9,3 C 94 % 1011,3 hPa 0,0 l/m 0,0 km/h (0 Bft) O 80 0 mm 8,4 C 9,3 C 2,0 km/h (1 Bft) 98 %
22.09.2020 08:30 8,9 C 94 % 1011,3 hPa 0,0 l/m 0,3 km/h (0 Bft) O 80 0 mm 8,0 C 8,9 C 2,0 km/h (1 Bft) 100 %
22.09.2020 08:20 8,5 C 94 % 1011,3 hPa 0,0 l/m 0,0 km/h (0 Bft) O 80 0 mm 7,6 C 8,5 C 0,0 km/h (0 Bft) 99 %
22.09.2020 08:10 8,3 C 93 % 1011,2 hPa 0,0 l/m 0,0 km/h (0 Bft) O 80 0 mm 7,2 C 8,3 C 0,0 km/h (0 Bft) 99 %
22.09.2020 08:00 8,2 C 93 % 1011,3 hPa 0,0 l/m 0,0 km/h (0 Bft) O 80 0 mm 7,1 C 8,2 C 0,0 km/h (0 Bft) 99 %
_ Min-Zeit 08:00 17:20 06:00 - 08:00 - - - 08:00 08:00 08:00 02:00
Minimum _ 8,2 C 45 % 1004,3 hPa - 0,0 km/h (0 Bft) - - - 7,1 C 8,2 C 0,0 km/h (0 Bft) 97 %
_ Max-Zeit 16:50 08:50 10:30 08:00 06:10 - - 08:00 13:00 16:50 12:40 10:00
Maximum _ 24,4 C 95 % 1011,4 hPa 0,0 l/m 6,5 km/h
S-SW (2 Bft)
- - 0 mm 14,4 C 24,4 C 15,7 km/h
W-SW (3 Bft)
100 %
Durchschnitt _ 15,5 C 75 % 1007,9 hPa #0,0 l/m 1,8 km/h (1 Bft) W-SW - #0,000 mm 10,7 C 15,5 C 4,5 km/h (1 Bft) 99 %